CheckWX is a tool to help pilots better visualize weather data.  It is not intended as a substitute for an official pre-flight weather briefing.

13:04:54 UTC

KDIJ TAF
Driggs-Reed Memorial Airport
Driggs, Idaho, USA
KDIJ 241120Z 2412/2512 17010KT P6SM -RA SCT015 OVC035 FM241900 20009KT P6SM VCTS SCT025CB OVC060 FM250200 15007KT P6SM VCSH SCT030 OVC050 AMD LTD TO CLD VIS AND WIND

May-24@
12:00 UTC

May-24 @ 12:00 UTC

May-24@
19:00 UTC

May-24 @ 19:00 UTC

KDIJ 241120Z 2412/2512 17010KT P6SM -RA SCT015 OVC035
Wind
  • 170° at 10 KTS
Conditions
Light Rain
Cloud Levels
  • Scattered at 1,500' AGL
  • Overcast at 3,500' AGL

May-24@
19:00 UTC

May-24 @ 19:00 UTC

May-25@
02:00 UTC

May-25 @ 02:00 UTC

FM241900 20009KT P6SM VCTS SCT025CB OVC060

From

From Standard forecast or significant change

Wind
  • 200° at 9 KTS
Conditions
Area Thunderstorm
Cloud Levels
  • Scattered at 2,500' AGL
  • Overcast at 6,000' AGL

May-25@
02:00 UTC

May-25 @ 02:00 UTC

May-25@
12:00 UTC

May-25 @ 12:00 UTC

FM250200 15007KT P6SM VCSH SCT030 OVC050 AMD LTD TO CLD VIS AND WIND

From

From Standard forecast or significant change

Wind
  • 150° at 7 KTS
Cloud Levels
  • Scattered at 3,000' AGL
  • Overcast at 5,000' AGL